Time;durP1;ratioP1;P1;durP2;ratioP2;P2;SDS_P1;SDS_P2;PMS_P1;PMS_P2;Temp;Humidity;BMP_temperature;BMP_pressure;BME280_temperature;BME280_humidity;BME280_pressure;Samples;Min_cycle;Max_cycle;Signal;HPM_P1;HPM_P2
2022/11/30 00:01:43;;;;;;;29.73;12.23;;;;;;;;;;5043249;28;20489;-74
2022/11/30 00:04:09;;;;;;;28.23;12.13;;;;;;;;;;5007470;28;20066;-74
2022/11/30 00:06:35;;;;;;;27.47;13.00;;;;;;;;;;5008938;28;20075;-74
2022/11/30 00:09:01;;;;;;;23.23;11.50;;;;;;;;;;5007409;28;20445;-74
2022/11/30 00:11:28;;;;;;;27.37;11.97;;;;;;;;;;5007487;28;20029;-77
2022/11/30 00:13:57;;;;;;;27.40;11.20;;;;;;;;;;5036990;28;20128;-80
2022/11/30 00:16:26;;;;;;;26.83;12.70;;;;;;;;;;5024091;28;20455;-76
2022/11/30 00:18:51;;;;;;;21.63;10.00;;;;;;;;;;5022383;28;20043;-75
2022/11/30 00:21:18;;;;;;;30.60;11.93;;;;;;;;;;5008736;28;20021;-75
2022/11/30 00:23:45;;;;;;;33.10;12.63;;;;;;;;;;5021242;28;20045;-74
2022/11/30 00:26:12;;;;;;;34.77;12.17;;;;;;;;;;5005769;28;20043;-75
2022/11/30 00:28:38;;;;;;;27.47;11.37;;;;;;;;;;5040285;28;20418;-75
2022/11/30 00:31:05;;;;;;;30.53;12.07;;;;;;;;;;5037576;28;20033;-75
2022/11/30 00:33:32;;;;;;;33.33;13.10;;;;;;;;;;5022195;28;20047;-75
2022/11/30 00:35:58;;;;;;;28.20;11.43;;;;;;;;;;5015264;28;20034;-74
2022/11/30 00:38:24;;;;;;;23.23;12.03;;;;;;;;;;5010989;28;20129;-75
2022/11/30 00:40:50;;;;;;;30.87;11.70;;;;;;;;;;5012441;28;20129;-75
2022/11/30 00:43:16;;;;;;;29.73;11.83;;;;;;;;;;4995652;28;20476;-73
2022/11/30 00:45:41;;;;;;;29.67;11.90;;;;;;;;;;5011969;28;20046;-73
2022/11/30 00:48:07;;;;;;;42.93;12.80;;;;;;;;;;5011754;28;20055;-73
2022/11/30 00:50:32;;;;;;;37.57;12.30;;;;;;;;;;4995531;28;20461;-74
2022/11/30 00:52:58;;;;;;;33.43;12.47;;;;;;;;;;4995014;28;20518;-73
2022/11/30 00:55:24;;;;;;;28.77;12.20;;;;;;;;;;4993307;28;20045;-74
2022/11/30 00:57:50;;;;;;;27.13;12.00;;;;;;;;;;5010092;28;20046;-73
2022/11/30 01:00:16;;;;;;;25.27;10.43;;;;;;;;;;4993724;28;20037;-75
2022/11/30 01:02:41;;;;;;;28.07;11.63;;;;;;;;;;4993537;28;20111;-75
2022/11/30 01:05:07;;;;;;;29.43;10.57;;;;;;;;;;4994361;28;20423;-75
2022/11/30 01:07:34;;;;;;;26.77;11.53;;;;;;;;;;5010693;28;20053;-74
2022/11/30 01:10:00;;;;;;;25.60;11.50;;;;;;;;;;4995318;28;20048;-74
2022/11/30 01:12:25;;;;;;;28.33;11.57;;;;;;;;;;4995353;28;20465;-74
2022/11/30 01:14:51;;;;;;;30.80;12.27;;;;;;;;;;4995215;28;20460;-74
2022/11/30 01:17:17;;;;;;;26.33;12.17;;;;;;;;;;4995012;28;20065;-75
2022/11/30 01:19:43;;;;;;;27.40;10.73;;;;;;;;;;4994878;28;20492;-74
2022/11/30 01:22:08;;;;;;;31.87;10.60;;;;;;;;;;4978774;28;20136;-74
2022/11/30 01:24:34;;;;;;;24.47;10.30;;;;;;;;;;4995044;28;20135;-74
2022/11/30 01:27:00;;;;;;;33.53;11.47;;;;;;;;;;4994849;28;20178;-75
2022/11/30 01:29:25;;;;;;;29.33;11.43;;;;;;;;;;5028329;28;20346;-75
2022/11/30 01:31:51;;;;;;;24.80;10.63;;;;;;;;;;4995069;28;20034;-74
2022/11/30 01:34:17;;;;;;;27.00;11.07;;;;;;;;;;4994867;28;20080;-74
2022/11/30 01:36:43;;;;;;;25.23;11.83;;;;;;;;;;4994940;28;20049;-75
2022/11/30 01:39:09;;;;;;;27.27;11.00;;;;;;;;;;4994755;28;20129;-75
2022/11/30 01:41:35;;;;;;;28.53;10.83;;;;;;;;;;4994938;28;20124;-74
2022/11/30 01:44:04;;;;;;;29.33;10.93;;;;;;;;;;5010814;28;20049;-75
2022/11/30 01:46:39;;;;;;;22.47;11.13;;;;;;;;;;5012267;28;20442;-75
2022/11/30 01:49:09;;;;;;;23.97;11.07;;;;;;;;;;4999265;28;20488;-76
2022/11/30 01:51:52;;;;;;;26.43;11.20;;;;;;;;;;4982368;28;20464;-74
2022/11/30 01:54:23;;;;;;;26.53;10.50;;;;;;;;;;5031871;28;20352;-74
2022/11/30 01:56:53;;;;;;;26.00;10.68;;;;;;;;;;5015146;28;20362;-77
2022/11/30 01:59:19;;;;;;;;;;;;;;;;;;4999357;28;20128;-74
2022/11/30 02:01:45;;;;;;;19.57;9.13;;;;;;;;;;5025716;28;20423;-73
2022/11/30 02:04:14;;;;;;;22.17;10.90;;;;;;;;;;5018050;28;20068;-73
2022/11/30 02:06:40;;;;;;;19.73;10.60;;;;;;;;;;5018329;28;20502;-73
2022/11/30 02:09:06;;;;;;;23.40;10.53;;;;;;;;;;5018216;28;20041;-73
2022/11/30 02:11:32;;;;;;;25.30;11.40;;;;;;;;;;5017940;28;20033;-73
2022/11/30 02:14:02;;;;;;;28.40;11.20;;;;;;;;;;5001644;28;20558;-73
2022/11/30 02:16:46;;;;;;;32.57;11.53;;;;;;;;;;5034633;28;20045;-73
2022/11/30 02:19:12;;;;;;;27.20;11.47;;;;;;;;;;5017881;28;20037;-73
2022/11/30 02:21:52;;;;;;;27.23;11.03;;;;;;;;;;5018142;28;20445;-73
2022/11/30 02:24:20;;;;;;;24.63;10.47;;;;;;;;;;5001789;28;20357;-73
2022/11/30 02:26:46;;;;;;;30.37;10.43;;;;;;;;;;5017777;28;20041;-72
2022/11/30 02:29:12;;;;;;;22.90;10.37;;;;;;;;;;5017818;28;20041;-72
2022/11/30 02:31:43;;;;;;;35.73;11.27;;;;;;;;;;5001472;28;20055;-73
2022/11/30 02:34:10;;;;;;;28.93;11.13;;;;;;;;;;5017744;28;20464;-72
2022/11/30 02:36:36;;;;;;;28.20;11.07;;;;;;;;;;5034281;28;20049;-72
2022/11/30 02:39:02;;;;;;;33.37;11.27;;;;;;;;;;5001167;28;20045;-73
2022/11/30 02:41:36;;;;;;;29.40;10.53;;;;;;;;;;5034362;28;20037;-73
2022/11/30 02:44:03;;;;;;;23.27;10.03;;;;;;;;;;5034124;28;20053;-73
2022/11/30 02:46:32;;;;;;;32.93;10.67;;;;;;;;;;5050806;28;20379;-72
2022/11/30 02:49:02;;;;;;;27.50;10.97;;;;;;;;;;5001393;28;20156;-72
2022/11/30 02:51:29;;;;;;;22.37;10.10;;;;;;;;;;5017614;28;20038;-73
2022/11/30 02:53:54;;;;;;;23.20;10.43;;;;;;;;;;5017435;28;20052;-72
2022/11/30 02:56:21;;;;;;;24.63;11.10;;;;;;;;;;5033773;28;20041;-72
2022/11/30 02:58:47;;;;;;;24.73;10.10;;;;;;;;;;5032356;28;20087;-72
2022/11/30 03:01:13;;;;;;;29.20;11.00;;;;;;;;;;5040727;28;20079;-72
2022/11/30 03:03:39;;;;;;;23.63;11.23;;;;;;;;;;5020184;28;20467;-72
2022/11/30 03:06:04;;;;;;;24.27;11.90;;;;;;;;;;5003773;28;20043;-72
2022/11/30 03:08:30;;;;;;;31.87;11.13;;;;;;;;;;5020257;28;20063;-73
2022/11/30 03:11:00;;;;;;;23.63;11.10;;;;;;;;;;5020019;28;20032;-73
2022/11/30 03:13:25;;;;;;;26.23;11.27;;;;;;;;;;5036238;28;20075;-75
2022/11/30 03:15:51;;;;;;;25.57;11.43;;;;;;;;;;5020052;28;20041;-75
2022/11/30 03:18:16;;;;;;;31.23;11.40;;;;;;;;;;5020051;28;20037;-73
2022/11/30 03:20:42;;;;;;;24.93;11.37;;;;;;;;;;5036165;28;20040;-75
2022/11/30 03:23:08;;;;;;;24.30;11.47;;;;;;;;;;5035821;28;20049;-75
2022/11/30 03:25:33;;;;;;;30.53;12.83;;;;;;;;;;5036386;28;20612;-74
2022/11/30 03:27:59;;;;;;;26.43;11.47;;;;;;;;;;5003486;28;20052;-74
2022/11/30 03:30:25;;;;;;;27.80;11.20;;;;;;;;;;5003264;28;20079;-74
2022/11/30 03:32:51;;;;;;;26.70;11.70;;;;;;;;;;5019357;28;20102;-74
2022/11/30 03:35:17;;;;;;;25.70;12.07;;;;;;;;;;5003117;28;20036;-74
2022/11/30 03:37:42;;;;;;;27.07;11.70;;;;;;;;;;5035959;28;20033;-74
2022/11/30 03:40:08;;;;;;;24.57;11.83;;;;;;;;;;5003011;28;20040;-74
2022/11/30 03:42:34;;;;;;;23.87;11.63;;;;;;;;;;5019089;28;20041;-74
2022/11/30 03:45:00;;;;;;;31.97;11.67;;;;;;;;;;5019162;28;20451;-74
2022/11/30 03:47:25;;;;;;;29.17;11.70;;;;;;;;;;5019084;28;20033;-74
2022/11/30 03:49:52;;;;;;;32.07;12.87;;;;;;;;;;5035549;28;20037;-74
2022/11/30 03:52:19;;;;;;;29.07;12.73;;;;;;;;;;5018093;28;20056;-74
2022/11/30 03:54:46;;;;;;;27.07;11.40;;;;;;;;;;5035749;28;20040;-74
2022/11/30 03:57:11;;;;;;;55.67;13.70;;;;;;;;;;5035437;28;20318;-74
2022/11/30 03:59:38;;;;;;;29.17;11.00;;;;;;;;;;5035351;28;20506;-73
2022/11/30 04:02:03;;;;;;;28.77;11.53;;;;;;;;;;5011917;28;20793;-74
2022/11/30 04:04:29;;;;;;;33.87;12.27;;;;;;;;;;5012473;28;20232;-74
2022/11/30 04:06:55;;;;;;;29.07;11.77;;;;;;;;;;4995594;28;20040;-74
2022/11/30 04:09:21;;;;;;;24.77;11.80;;;;;;;;;;5022593;28;20072;-74
2022/11/30 04:11:46;;;;;;;27.40;10.80;;;;;;;;;;5048408;28;20124;-73
2022/11/30 04:14:14;;;;;;;22.80;12.27;;;;;;;;;;5015350;28;20041;-74
2022/11/30 04:16:40;;;;;;;29.43;12.60;;;;;;;;;;5031722;28;20029;-73
2022/11/30 04:19:05;;;;;;;26.70;12.10;;;;;;;;;;5031684;28;20378;-74
2022/11/30 04:21:31;;;;;;;31.00;12.60;;;;;;;;;;5015768;28;20057;-74
2022/11/30 04:23:56;;;;;;;25.10;11.43;;;;;;;;;;5015191;28;20076;-76
2022/11/30 04:26:22;;;;;;;33.57;12.30;;;;;;;;;;4999160;28;20499;-67
2022/11/30 04:28:48;;;;;;;30.70;11.37;;;;;;;;;;5031717;28;20292;-67
2022/11/30 04:31:13;;;;;;;29.93;12.57;;;;;;;;;;5031699;28;20037;-70
2022/11/30 04:33:39;;;;;;;32.37;12.10;;;;;;;;;;5015128;28;20389;-69
2022/11/30 04:36:06;;;;;;;32.07;12.63;;;;;;;;;;5031749;28;20055;-69
2022/11/30 04:38:32;;;;;;;27.23;12.87;;;;;;;;;;5031896;28;20494;-69
2022/11/30 04:41:05;;;;;;;30.70;12.33;;;;;;;;;;5032988;28;20476;-69
2022/11/30 04:43:42;;;;;;;39.17;13.60;;;;;;;;;;5048153;28;20334;-66
2022/11/30 04:46:07;;;;;;;32.57;12.90;;;;;;;;;;4998795;28;20331;-68
2022/11/30 04:48:33;;;;;;;32.93;12.30;;;;;;;;;;5015088;28;20038;-67
2022/11/30 04:50:59;;;;;;;36.30;13.43;;;;;;;;;;5047809;28;20033;-70
2022/11/30 04:53:25;;;;;;;38.07;12.67;;;;;;;;;;5031399;28;20124;-70
2022/11/30 04:55:50;;;;;;;28.87;12.03;;;;;;;;;;5013772;28;20437;-69
2022/11/30 04:58:16;;;;;;;33.10;13.47;;;;;;;;;;5009751;28;20034;-70
2022/11/30 05:00:42;;;;;;;27.53;12.57;;;;;;;;;;5011239;28;20279;-70
2022/11/30 05:03:07;;;;;;;29.77;13.57;;;;;;;;;;5051768;28;20056;-69
2022/11/30 05:05:33;;;;;;;29.77;13.70;;;;;;;;;;5070658;28;20111;-69
2022/11/30 05:07:59;;;;;;;28.47;13.53;;;;;;;;;;5053865;28;20060;-69
2022/11/30 05:10:24;;;;;;;32.63;14.03;;;;;;;;;;5036939;28;20032;-69
2022/11/30 05:12:51;;;;;;;42.93;13.33;;;;;;;;;;5052673;28;20381;-70
2022/11/30 05:15:17;;;;;;;35.20;13.60;;;;;;;;;;5087040;28;20028;-69
2022/11/30 05:17:43;;;;;;;30.23;11.83;;;;;;;;;;5070573;28;20293;-69
2022/11/30 05:20:08;;;;;;;28.07;11.57;;;;;;;;;;5069998;28;20274;-68
2022/11/30 05:22:34;;;;;;;38.70;13.73;;;;;;;;;;5052885;28;20109;-68
2022/11/30 05:25:00;;;;;;;27.00;11.93;;;;;;;;;;5052970;28;20033;-68
2022/11/30 05:27:26;;;;;;;43.00;13.27;;;;;;;;;;5070058;28;20036;-68
2022/11/30 05:29:52;;;;;;;29.60;12.30;;;;;;;;;;5053387;28;20385;-67
2022/11/30 05:32:17;;;;;;;26.40;13.17;;;;;;;;;;5053304;28;20028;-68
2022/11/30 05:34:43;;;;;;;41.00;13.03;;;;;;;;;;5036651;28;20036;-68
2022/11/30 05:37:08;;;;;;;35.97;14.23;;;;;;;;;;5053066;28;20459;-67
2022/11/30 05:39:34;;;;;;;33.20;13.50;;;;;;;;;;5056360;28;20037;-69
2022/11/30 05:41:59;;;;;;;36.40;13.97;;;;;;;;;;5053017;28;20654;-68
2022/11/30 05:44:26;;;;;;;31.83;13.43;;;;;;;;;;5069893;28;20096;-69
2022/11/30 05:46:51;;;;;;;33.40;12.57;;;;;;;;;;5069469;28;20377;-69
2022/11/30 05:49:17;;;;;;;31.97;13.50;;;;;;;;;;5053062;28;20058;-68
2022/11/30 05:51:42;;;;;;;31.60;12.83;;;;;;;;;;5052829;28;20036;-69
2022/11/30 05:54:08;;;;;;;35.83;13.20;;;;;;;;;;5052899;28;20085;-68
2022/11/30 05:56:34;;;;;;;28.60;13.03;;;;;;;;;;5053284;28;20043;-69
2022/11/30 05:58:59;;;;;;;31.33;12.27;;;;;;;;;;5036036;28;20032;-68
2022/11/30 06:01:26;;;;;;;27.97;13.80;;;;;;;;;;5027954;28;20472;-69
2022/11/30 06:03:51;;;;;;;29.27;13.23;;;;;;;;;;5035707;28;20049;-68
2022/11/30 06:06:18;;;;;;;37.57;13.30;;;;;;;;;;5004625;28;20378;-69
2022/11/30 06:08:44;;;;;;;36.47;14.33;;;;;;;;;;5005901;28;20174;-69
2022/11/30 06:11:10;;;;;;;39.67;13.30;;;;;;;;;;5004611;28;20033;-69
2022/11/30 06:13:36;;;;;;;29.90;12.03;;;;;;;;;;5004915;28;20275;-69
2022/11/30 06:16:03;;;;;;;34.40;13.30;;;;;;;;;;5006390;28;20040;-68
2022/11/30 06:18:28;;;;;;;26.13;11.47;;;;;;;;;;5011890;28;20295;-69
2022/11/30 06:20:58;;;;;;;28.87;12.33;;;;;;;;;;4977268;28;20038;-70
2022/11/30 06:23:23;;;;;;;24.63;11.67;;;;;;;;;;5010080;28;20049;-68
2022/11/30 06:25:49;;;;;;;25.83;11.80;;;;;;;;;;4993283;28;20838;-69
2022/11/30 06:28:15;;;;;;;38.30;11.80;;;;;;;;;;5018009;28;20036;-70
2022/11/30 06:30:42;;;;;;;37.03;11.10;;;;;;;;;;5004564;28;20059;-71
2022/11/30 06:33:08;;;;;;;34.10;12.70;;;;;;;;;;5007198;28;20044;-68
2022/11/30 06:35:34;;;;;;;30.47;11.90;;;;;;;;;;5032834;28;20116;-67
2022/11/30 06:38:00;;;;;;;29.43;12.17;;;;;;;;;;5009285;28;20037;-69
2022/11/30 06:40:27;;;;;;;37.43;13.20;;;;;;;;;;5024098;28;20112;-69
2022/11/30 06:42:53;;;;;;;33.47;12.23;;;;;;;;;;5007462;28;20042;-68
2022/11/30 06:45:18;;;;;;;23.70;12.27;;;;;;;;;;5009463;28;20375;-67
2022/11/30 06:47:44;;;;;;;30.13;12.00;;;;;;;;;;5008340;28;20037;-68
2022/11/30 06:50:10;;;;;;;28.07;11.47;;;;;;;;;;5007983;28;20123;-69
2022/11/30 06:52:35;;;;;;;31.77;11.63;;;;;;;;;;5004804;28;20415;-68
2022/11/30 06:55:01;;;;;;;38.23;11.73;;;;;;;;;;4997869;28;20050;-70
2022/11/30 06:57:29;;;;;;;24.53;10.73;;;;;;;;;;5039405;28;20487;-69
2022/11/30 06:59:54;;;;;;;28.10;12.17;;;;;;;;;;5008709;28;20029;-69
2022/11/30 07:02:20;;;;;;;26.87;11.40;;;;;;;;;;5021876;28;20492;-68
2022/11/30 07:04:46;;;;;;;28.07;11.87;;;;;;;;;;5034760;28;20511;-68
2022/11/30 07:07:11;;;;;;;30.50;11.03;;;;;;;;;;5034317;28;20041;-68
2022/11/30 07:09:40;;;;;;;28.40;11.80;;;;;;;;;;5017544;28;20498;-68
2022/11/30 07:12:06;;;;;;;33.57;11.80;;;;;;;;;;5048100;28;20053;-69
2022/11/30 07:14:32;;;;;;;25.07;11.43;;;;;;;;;;5014704;28;20033;-68
2022/11/30 07:16:57;;;;;;;24.70;11.10;;;;;;;;;;5046125;28;20042;-68
2022/11/30 07:19:23;;;;;;;25.40;11.33;;;;;;;;;;5015453;28;20033;-68
2022/11/30 07:21:49;;;;;;;25.87;12.03;;;;;;;;;;5047904;28;20052;-68
2022/11/30 07:27:10;;;;;;;27.63;12.40;;;;;;;;;;4978492;28;20096;-69
2022/11/30 07:29:35;;;;;;;26.70;12.37;;;;;;;;;;4962524;28;20476;-69
2022/11/30 07:32:01;;;;;;;26.23;12.53;;;;;;;;;;5006647;28;20037;-69
2022/11/30 07:34:26;;;;;;;24.07;11.23;;;;;;;;;;5031503;28;20034;-68
2022/11/30 07:36:52;;;;;;;24.97;11.77;;;;;;;;;;5050213;28;20582;-67
2022/11/30 07:39:18;;;;;;;26.43;11.83;;;;;;;;;;5034509;28;20136;-69
2022/11/30 07:41:44;;;;;;;24.43;12.90;;;;;;;;;;5016510;28;20021;-68
2022/11/30 07:44:10;;;;;;;23.27;11.40;;;;;;;;;;5032388;28;20159;-69
2022/11/30 07:46:36;;;;;;;22.53;12.17;;;;;;;;;;5027827;28;20124;-69
2022/11/30 07:49:03;;;;;;;29.57;11.67;;;;;;;;;;5049189;28;20037;-68
2022/11/30 07:51:29;;;;;;;26.60;12.73;;;;;;;;;;5033523;28;20024;-69
2022/11/30 07:53:55;;;;;;;23.70;12.57;;;;;;;;;;5033320;28;20356;-68
2022/11/30 07:56:21;;;;;;;29.27;12.43;;;;;;;;;;5049797;28;20170;-69
2022/11/30 07:58:48;;;;;;;25.33;13.00;;;;;;;;;;5033186;28;20116;-69
2022/11/30 08:01:20;;;;;;;25.90;12.30;;;;;;;;;;5029063;28;20049;-70
2022/11/30 08:03:46;;;;;;;29.67;12.47;;;;;;;;;;5048507;28;20064;-68
2022/11/30 08:06:13;;;;;;;30.00;12.60;;;;;;;;;;5048917;28;20040;-68
2022/11/30 08:08:39;;;;;;;23.50;12.27;;;;;;;;;;5032658;28;20491;-69
2022/11/30 08:11:06;;;;;;;30.67;12.77;;;;;;;;;;5024889;28;20044;-69
2022/11/30 08:13:32;;;;;;;24.33;11.10;;;;;;;;;;5015674;28;20039;-68
2022/11/30 08:16:02;;;;;;;23.07;11.43;;;;;;;;;;5013828;28;20034;-67
2022/11/30 08:18:28;;;;;;;24.48;12.35;;;;;;;;;;5032588;28;20079;-69
2022/11/30 08:20:58;;;;;;;35.60;12.47;;;;;;;;;;5013996;28;20090;-67
2022/11/30 08:23:26;;;;;;;25.88;12.07;;;;;;;;;;5014230;28;20037;-69
2022/11/30 08:25:52;;;;;;;24.33;13.25;;;;;;;;;;5049125;28;20044;-67
2022/11/30 08:28:17;;;;;;;26.30;12.52;;;;;;;;;;5014519;28;20151;-69
2022/11/30 08:30:43;;;;;;;24.73;13.02;;;;;;;;;;5016627;28;20056;-68
2022/11/30 08:33:09;;;;;;;25.52;13.35;;;;;;;;;;5032821;28;20052;-69
2022/11/30 08:35:34;;;;;;;27.63;14.00;;;;;;;;;;5029944;28;20124;-69
2022/11/30 08:38:00;;;;;;;28.17;13.93;;;;;;;;;;5019306;28;20082;-70
2022/11/30 08:40:26;;;;;;;26.10;14.00;;;;;;;;;;5034060;28;20041;-70
2022/11/30 08:42:52;;;;;;;22.65;13.35;;;;;;;;;;5032749;28;20044;-69
2022/11/30 08:45:18;;;;;;;23.83;14.00;;;;;;;;;;5033608;28;20068;-69
2022/11/30 08:47:44;;;;;;;28.25;14.65;;;;;;;;;;5034143;28;20464;-69
2022/11/30 08:50:10;;;;;;;28.15;16.55;;;;;;;;;;5017441;28;20044;-70
2022/11/30 08:52:37;;;;;;;28.27;13.82;;;;;;;;;;5033038;28;20229;-69
2022/11/30 08:55:05;;;;;;;28.38;14.68;;;;;;;;;;5017059;28;20487;-69
2022/11/30 08:57:32;;;;;;;30.80;14.10;;;;;;;;;;5033604;28;20515;-69
2022/11/30 08:59:57;;;;;;;25.77;14.48;;;;;;;;;;5033882;28;20152;-70
2022/11/30 09:02:23;;;;;;;27.40;14.27;;;;;;;;;;5017055;28;20069;-70
2022/11/30 09:04:52;;;;;;;26.48;14.23;;;;;;;;;;5050441;28;20130;-69
2022/11/30 09:07:18;;;;;;;32.55;14.85;;;;;;;;;;5051304;28;20515;-70
2022/11/30 09:09:44;;;;;;;28.58;15.32;;;;;;;;;;5017274;28;20040;-70
2022/11/30 09:12:10;;;;;;;30.00;14.30;;;;;;;;;;5032909;28;20040;-68
2022/11/30 09:14:36;;;;;;;33.33;14.68;;;;;;;;;;5017296;28;20036;-70
2022/11/30 09:17:01;;;;;;;27.88;15.32;;;;;;;;;;5017108;28;20033;-70
2022/11/30 09:19:27;;;;;;;30.30;15.32;;;;;;;;;;5049424;28;20036;-70
2022/11/30 09:21:53;;;;;;;32.90;15.88;;;;;;;;;;5016845;28;20033;-70
2022/11/30 09:24:19;;;;;;;30.38;15.43;;;;;;;;;;5016181;28;20102;-71
2022/11/30 09:26:45;;;;;;;29.30;14.57;;;;;;;;;;5032349;28;20481;-72
2022/11/30 09:29:11;;;;;;;22.75;14.00;;;;;;;;;;5015950;28;20505;-71
2022/11/30 09:31:36;;;;;;;28.58;14.63;;;;;;;;;;5032502;28;20044;-72
2022/11/30 09:34:02;;;;;;;21.73;13.68;;;;;;;;;;5016966;28;20103;-72
2022/11/30 09:36:28;;;;;;;26.92;13.93;;;;;;;;;;5033405;28;20562;-70
2022/11/30 09:38:56;;;;;;;24.45;13.15;;;;;;;;;;5033504;28;20028;-70
2022/11/30 09:41:40;;;;;;;27.23;13.45;;;;;;;;;;5016940;28;20068;-69
2022/11/30 09:44:15;;;;;;;24.48;13.98;;;;;;;;;;5016900;28;20098;-69
2022/11/30 09:46:43;;;;;;;22.08;14.55;;;;;;;;;;5016683;28;20464;-70
2022/11/30 09:49:17;;;;;;;24.10;14.48;;;;;;;;;;5016835;28;20447;-69
2022/11/30 09:51:44;;;;;;;23.83;14.55;;;;;;;;;;5033503;28;20041;-70
2022/11/30 09:54:20;;;;;;;25.73;15.55;;;;;;;;;;5016603;28;20036;-69
2022/11/30 09:56:46;;;;;;;29.35;16.83;;;;;;;;;;5049556;28;20044;-69
2022/11/30 09:59:15;;;;;;;37.53;17.30;;;;;;;;;;5049629;28;20036;-69
2022/11/30 10:01:43;;;;;;;28.57;16.97;;;;;;;;;;5049723;28;20095;-71
2022/11/30 10:04:19;;;;;;;29.55;16.33;;;;;;;;;;5016681;28;20106;-77
2022/11/30 10:06:52;;;;;;;34.20;15.38;;;;;;;;;;5033167;28;20051;-78
2022/11/30 10:09:42;;;;;;;31.35;16.50;;;;;;;;;;5053522;28;20041;-76
2022/11/30 10:12:13;;;;;;;33.17;15.93;;;;;;;;;;5019745;28;20037;-73
2022/11/30 10:14:45;;;;;;;32.20;16.38;;;;;;;;;;5020219;28;20068;-76
2022/11/30 10:17:20;;;;;;;29.90;15.80;;;;;;;;;;5020331;28;20047;-78
2022/11/30 10:19:52;;;;;;;33.70;15.05;;;;;;;;;;5053294;28;20044;-75
2022/11/30 10:22:33;;;;;;;26.38;15.13;;;;;;;;;;5020013;28;20044;-78
2022/11/30 10:25:05;;;;;;;31.17;14.82;;;;;;;;;;5053114;28;20044;-78
2022/11/30 10:27:34;;;;;;;27.15;14.82;;;;;;;;;;5050553;28;20037;-78
2022/11/30 10:30:00;;;;;;;32.90;15.68;;;;;;;;;;5050308;28;20025;-77
2022/11/30 10:32:32;;;;;;;27.60;14.65;;;;;;;;;;5035192;28;20095;-77
2022/11/30 10:35:02;;;;;;;24.77;14.60;;;;;;;;;;5049971;28;20025;-75
2022/11/30 10:37:29;;;;;;;24.67;14.35;;;;;;;;;;5046088;28;20048;-75
2022/11/30 10:40:00;;;;;;;31.00;15.07;;;;;;;;;;5051274;28;20040;-78
2022/11/30 10:42:46;;;;;;;26.80;15.10;;;;;;;;;;5018387;28;20398;-73
2022/11/30 10:45:15;;;;;;;25.25;13.80;;;;;;;;;;5049861;28;20124;-74
2022/11/30 10:47:56;;;;;;;23.30;13.27;;;;;;;;;;5052643;28;20127;-73
2022/11/30 10:50:24;;;;;;;25.15;14.07;;;;;;;;;;5042787;28;20037;-71
2022/11/30 10:52:52;;;;;;;24.40;13.43;;;;;;;;;;5017511;28;20505;-72
2022/11/30 10:55:20;;;;;;;25.33;13.93;;;;;;;;;;5034595;28;20136;-72
2022/11/30 10:57:47;;;;;;;27.48;13.43;;;;;;;;;;5034514;28;20106;-71
2022/11/30 11:00:15;;;;;;;26.15;14.15;;;;;;;;;;5016256;28;20030;-73
2022/11/30 11:02:42;;;;;;;22.27;13.65;;;;;;;;;;5030656;28;20044;-73
2022/11/30 11:05:16;;;;;;;25.70;14.02;;;;;;;;;;5019249;28;20029;-73
2022/11/30 11:07:54;;;;;;;28.73;13.95;;;;;;;;;;5052500;28;20036;-73
2022/11/30 11:10:39;;;;;;;27.55;12.90;;;;;;;;;;5052053;28;20040;-75
2022/11/30 11:13:14;;;;;;;22.63;12.20;;;;;;;;;;5007867;28;20507;-77
2022/11/30 11:15:41;;;;;;;19.15;11.75;;;;;;;;;;5019120;28;20068;-73
2022/11/30 11:18:26;;;;;;;26.45;12.93;;;;;;;;;;5051965;28;20079;-73
2022/11/30 11:21:15;;;;;;;25.23;13.90;;;;;;;;;;5018684;28;20051;-73
2022/11/30 11:23:42;;;;;;;23.30;11.93;;;;;;;;;;5043989;28;20067;-74
2022/11/30 11:26:21;;;;;;;25.98;11.85;;;;;;;;;;5019132;28;20525;-71
2022/11/30 11:28:49;;;;;;;27.75;12.63;;;;;;;;;;5051954;28;20047;-73
2022/11/30 11:31:35;;;;;;;21.50;12.40;;;;;;;;;;5018368;28;20143;-77
2022/11/30 11:34:02;;;;;;;23.10;12.90;;;;;;;;;;5033027;28;20040;-73
2022/11/30 11:36:29;;;;;;;23.10;12.52;;;;;;;;;;5049586;28;20450;-74
2022/11/30 11:38:55;;;;;;;20.63;12.02;;;;;;;;;;5033394;28;20037;-72
2022/11/30 11:41:34;;;;;;;24.48;12.95;;;;;;;;;;5050412;28;20056;-73
2022/11/30 11:44:09;;;;;;;26.48;13.13;;;;;;;;;;5034238;28;20502;-74
2022/11/30 11:46:37;;;;;;;27.30;13.18;;;;;;;;;;5034910;28;20040;-73
2022/11/30 11:49:02;;;;;;;24.42;13.02;;;;;;;;;;5018527;28;20033;-74
2022/11/30 11:51:35;;;;;;;22.08;12.95;;;;;;;;;;5035064;28;20102;-75
2022/11/30 11:54:05;;;;;;;27.92;13.02;;;;;;;;;;5018226;28;20037;-74
2022/11/30 11:56:33;;;;;;;28.70;12.90;;;;;;;;;;5017229;28;20140;-73
2022/11/30 11:59:05;;;;;;;23.10;13.18;;;;;;;;;;5050369;28;20546;-74
2022/11/30 12:01:50;;;;;;;26.83;13.80;;;;;;;;;;5050739;28;20057;-73
2022/11/30 12:04:25;;;;;;;22.02;11.68;;;;;;;;;;5017980;28;20055;-75
2022/11/30 12:06:52;;;;;;;24.88;13.88;;;;;;;;;;5018031;28;20131;-72
2022/11/30 12:09:21;;;;;;;24.97;14.20;;;;;;;;;;5018296;28;20033;-73
2022/11/30 12:11:47;;;;;;;23.73;13.77;;;;;;;;;;5017127;28;20036;-72
2022/11/30 12:14:15;;;;;;;27.60;14.43;;;;;;;;;;5017408;28;20037;-71
2022/11/30 12:16:47;;;;;;;25.30;14.00;;;;;;;;;;5033910;28;20029;-71
2022/11/30 12:19:20;;;;;;;26.67;13.47;;;;;;;;;;5017435;28;20033;-71
2022/11/30 12:22:05;;;;;;;29.83;13.13;;;;;;;;;;5017762;28;20132;-70
2022/11/30 12:24:31;;;;;;;25.13;13.07;;;;;;;;;;5034303;28;20044;-71
2022/11/30 12:26:57;;;;;;;28.40;13.67;;;;;;;;;;5017790;28;20166;-70
2022/11/30 12:29:28;;;;;;;27.13;13.37;;;;;;;;;;5016866;28;20124;-70
2022/11/30 12:31:53;;;;;;;;;;;;;;;;;;5016450;28;20091;-70
2022/11/30 12:34:20;;;;;;;27.97;13.20;;;;;;;;;;5049258;28;19912;-70
2022/11/30 12:37:24;;;;;;;31.10;13.13;;;;;;;;;;5016687;28;20033;-70
2022/11/30 12:39:52;;;;;;;30.50;14.10;;;;;;;;;;4940836;28;20038;-70
2022/11/30 12:42:26;;;;;;;35.43;13.97;;;;;;;;;;4941652;28;20105;-71
2022/11/30 12:45:02;;;;;;;25.60;13.07;;;;;;;;;;4982000;28;20060;-69
2022/11/30 12:47:58;;;;;;;29.97;13.97;;;;;;;;;;5034214;28;20048;-69
2022/11/30 12:50:50;;;;;;;27.80;13.53;;;;;;;;;;4999294;28;20072;-69
2022/11/30 12:53:16;;;;;;;27.47;14.67;;;;;;;;;;5011185;28;20069;-70
2022/11/30 12:55:53;;;;;;;32.30;14.63;;;;;;;;;;5030730;28;20464;-70
2022/11/30 12:58:33;;;;;;;35.50;16.17;;;;;;;;;;5030400;28;20077;-70
2022/11/30 13:01:14;;;;;;;35.03;15.63;;;;;;;;;;5002257;28;20033;-69
2022/11/30 13:03:54;;;;;;;37.40;16.87;;;;;;;;;;5053771;28;20040;-71
2022/11/30 13:06:26;;;;;;;43.90;16.97;;;;;;;;;;5037028;28;20524;-70
2022/11/30 13:08:53;;;;;;;43.40;17.80;;;;;;;;;;5036310;28;20037;-70
2022/11/30 13:11:23;;;;;;;43.33;17.93;;;;;;;;;;5036999;28;20036;-69
2022/11/30 13:13:51;;;;;;;42.50;17.63;;;;;;;;;;5053190;28;20135;-70
2022/11/30 13:16:17;;;;;;;57.53;18.00;;;;;;;;;;5020598;28;20129;-69
2022/11/30 13:18:43;;;;;;;46.10;17.70;;;;;;;;;;5037003;28;20037;-70
2022/11/30 13:21:24;;;;;;;46.00;18.80;;;;;;;;;;5036725;28;20455;-70
2022/11/30 13:23:50;;;;;;;39.63;17.20;;;;;;;;;;5020304;28;20068;-71
2022/11/30 13:26:26;;;;;;;39.27;17.20;;;;;;;;;;5053376;28;20370;-69
2022/11/30 13:29:02;;;;;;;54.67;18.03;;;;;;;;;;5036895;28;20482;-70
2022/11/30 13:31:33;;;;;;;48.93;18.47;;;;;;;;;;5036752;28;20046;-70
2022/11/30 13:33:59;;;;;;;42.67;18.27;;;;;;;;;;5053461;28;20139;-70
2022/11/30 13:36:27;;;;;;;47.37;17.30;;;;;;;;;;5020413;28;20047;-71
2022/11/30 13:39:12;;;;;;;37.63;17.27;;;;;;;;;;5036574;28;20036;-70
2022/11/30 13:41:38;;;;;;;39.53;17.90;;;;;;;;;;5020190;28;20098;-70
2022/11/30 13:44:05;;;;;;;44.70;17.73;;;;;;;;;;5040215;28;20040;-70
2022/11/30 13:46:30;;;;;;;47.20;16.87;;;;;;;;;;5040618;28;20048;-70
2022/11/30 13:49:09;;;;;;;42.97;18.00;;;;;;;;;;5040315;28;20491;-69
2022/11/30 13:51:37;;;;;;;39.93;17.87;;;;;;;;;;5024573;28;20119;-70
2022/11/30 13:54:21;;;;;;;43.30;17.97;;;;;;;;;;5023887;28;20041;-70
2022/11/30 13:56:48;;;;;;;39.33;16.37;;;;;;;;;;5023878;28;20117;-70
2022/11/30 13:59:22;;;;;;;40.50;17.00;;;;;;;;;;5007741;28;20497;-69
2022/11/30 14:01:48;;;;;;;37.20;16.73;;;;;;;;;;5040312;28;20536;-69
2022/11/30 14:04:14;;;;;;;49.50;18.27;;;;;;;;;;5073441;28;20048;-70
2022/11/30 14:06:40;;;;;;;39.07;17.03;;;;;;;;;;5056665;28;20044;-70
2022/11/30 14:09:13;;;;;;;41.63;16.93;;;;;;;;;;5039833;28;20040;-70
2022/11/30 14:11:41;;;;;;;40.17;16.17;;;;;;;;;;5023347;28;20633;-70
2022/11/30 14:14:25;;;;;;;46.27;15.97;;;;;;;;;;5040194;28;20060;-70
2022/11/30 14:16:51;;;;;;;39.07;16.73;;;;;;;;;;5023002;28;20043;-69
2022/11/30 14:19:18;;;;;;;47.97;16.87;;;;;;;;;;5039542;28;20055;-69
2022/11/30 14:21:43;;;;;;;50.80;17.57;;;;;;;;;;5023498;28;20242;-70
2022/11/30 14:24:18;;;;;;;36.60;15.73;;;;;;;;;;5023379;28;20160;-70
2022/11/30 14:26:45;;;;;;;52.53;16.53;;;;;;;;;;5023356;28;20036;-70
2022/11/30 14:29:17;;;;;;;42.03;15.83;;;;;;;;;;5056177;28;20032;-71